createdAt,value
2024-03-16T00:04:55.873Z,102080.34
2024-03-16T00:21:34.669Z,102079.44
2024-03-16T00:27:01.490Z,102075.28
2024-03-16T00:32:21.750Z,102082.59
2024-03-16T00:37:26.812Z,102086.16
2024-03-16T00:42:29.221Z,102089.69
2024-03-16T00:47:37.027Z,102084.13
2024-03-16T00:52:47.440Z,102082.16
2024-03-16T00:57:56.579Z,102078.84
2024-03-16T01:03:12.241Z,102086.75
2024-03-16T01:08:29.786Z,102092.50
2024-03-16T01:13:32.787Z,102105.63
2024-03-16T01:19:05.187Z,102110.53
2024-03-16T01:24:16.903Z,102096.84
2024-03-16T01:29:27.882Z,102097.34
2024-03-16T01:34:32.241Z,102086.38
2024-03-16T01:39:47.329Z,102091.88
2024-03-16T01:50:43.183Z,102093.38
2024-03-16T01:55:51.424Z,102089.72
2024-03-16T02:05:38.881Z,102079.41
2024-03-16T02:10:58.105Z,102072.78
2024-03-16T02:16:04.149Z,102080.41
2024-03-16T02:21:20.656Z,102088.31
2024-03-16T02:26:26.157Z,102090.66
2024-03-16T02:31:43.883Z,102080.72
2024-03-16T02:36:53.680Z,102065.25
2024-03-16T02:42:04.375Z,102059.72
2024-03-16T02:47:10.156Z,102065.44
2024-03-16T02:52:14.282Z,102061.56
2024-03-16T02:57:27.256Z,102062.63
2024-03-16T03:02:45.006Z,102059.56
2024-03-16T03:07:51.063Z,102060.66
2024-03-16T03:13:03.403Z,102056.50
2024-03-16T03:23:41.236Z,102050.72
2024-03-16T03:29:27.871Z,102059.41
2024-03-16T03:34:34.233Z,102057.19
2024-03-16T03:45:53.592Z,102064.47
2024-03-16T03:51:02.463Z,102053.53
2024-03-16T03:56:12.848Z,102051.63
2024-03-16T04:01:15.415Z,102036.31
2024-03-16T04:06:50.855Z,102048.91
2024-03-16T04:11:53.189Z,102053.53
2024-03-16T04:16:58.434Z,102056.28
2024-03-16T04:22:13.619Z,102069.13
2024-03-16T04:27:21.711Z,102055.69
2024-03-16T04:32:29.696Z,102062.50
2024-03-16T04:37:40.585Z,102069.28
2024-03-16T04:42:47.154Z,102077.75
2024-03-16T04:48:06.120Z,102087.63
2024-03-16T04:53:25.729Z,102101.28
2024-03-16T04:58:31.536Z,102114.13
2024-03-16T05:03:34.141Z,102108.91
2024-03-16T05:08:37.214Z,102107.25
2024-03-16T05:13:43.761Z,102108.09
2024-03-16T05:18:46.141Z,102117.63
2024-03-16T05:23:48.656Z,102113.97
2024-03-16T05:28:51.222Z,102116.34
2024-03-16T05:33:53.557Z,102104.25
2024-03-16T05:38:55.621Z,102108.56
2024-03-16T05:43:57.859Z,102106.91
2024-03-16T05:49:00.300Z,102103.56
2024-03-16T05:54:05.360Z,102119.97
2024-03-16T05:59:19.728Z,102130.06
2024-03-16T06:04:30.337Z,102142.31
2024-03-16T06:09:41.186Z,102139.00
2024-03-16T06:14:45.708Z,102135.69
2024-03-16T06:19:51.274Z,102131.03
2024-03-16T06:24:53.921Z,102138.16
2024-03-16T06:29:57.733Z,102148.63
2024-03-16T06:34:59.925Z,102151.69
2024-03-16T06:40:01.959Z,102150.16
2024-03-16T06:45:05.979Z,102169.72
2024-03-16T06:50:14.477Z,102182.16
2024-03-16T06:55:24.504Z,102193.28
2024-03-16T07:00:29.574Z,102196.69
2024-03-16T07:05:34.131Z,102201.28
2024-03-16T07:10:36.712Z,102214.38
2024-03-16T07:15:40.697Z,102210.09
2024-03-16T07:20:43.323Z,102214.38
2024-03-16T07:25:50.905Z,102219.81
2024-03-16T07:30:59.316Z,102219.19
2024-03-16T07:36:02.308Z,102223.41
2024-03-16T07:41:07.898Z,102222.16
2024-03-16T07:46:10.189Z,102227.75
2024-03-16T07:51:15.297Z,102232.53
2024-03-16T07:56:19.787Z,102228.00
2024-03-16T08:01:24.812Z,102234.16
2024-03-16T08:06:27.372Z,102242.78
2024-03-16T08:11:34.532Z,102258.00
2024-03-16T08:16:39.910Z,102258.56
2024-03-16T08:21:42.229Z,102269.31
2024-03-16T08:26:44.974Z,102274.25
2024-03-16T08:31:49.439Z,102280.56
2024-03-16T08:36:57.013Z,102281.00
2024-03-16T08:42:01.236Z,102290.53
2024-03-16T08:47:03.460Z,102288.47
2024-03-16T08:52:05.895Z,102289.94
2024-03-16T08:57:14.398Z,102296.97
2024-03-16T09:02:22.519Z,102311.41
2024-03-16T09:07:25.145Z,102315.94
2024-03-16T09:12:30.305Z,102324.47
2024-03-16T09:17:34.189Z,102328.34
2024-03-16T09:22:39.131Z,102329.31
2024-03-16T09:27:44.781Z,102332.47
2024-03-16T09:32:47.129Z,102343.88
2024-03-16T09:37:49.495Z,102340.66
